createdAt,value
2024-03-13T00:00:36.360Z,4.07
2024-03-13T00:03:03.315Z,4.07
2024-03-13T00:05:30.982Z,4.05
2024-03-13T00:07:57.983Z,4.08
2024-03-13T00:10:25.616Z,4.11
2024-03-13T00:12:52.732Z,4.11
2024-03-13T00:15:19.960Z,4.11
2024-03-13T00:17:46.836Z,4.17
2024-03-13T00:20:13.835Z,4.17
2024-03-13T00:22:42.276Z,4.19
2024-03-13T00:25:13.575Z,4.25
2024-03-13T00:27:43.366Z,4.15
2024-03-13T00:30:10.836Z,4.17
2024-03-13T00:32:37.785Z,4.09
2024-03-13T00:35:06.219Z,4.07
2024-03-13T00:37:33.332Z,4.08
2024-03-13T00:40:00.520Z,4.08
2024-03-13T00:42:27.596Z,4.11
2024-03-13T00:44:54.795Z,4.12
2024-03-13T00:47:24.492Z,4.12
2024-03-13T00:49:54.065Z,4.09
2024-03-13T00:52:21.529Z,4.12
2024-03-13T00:54:49.078Z,4.08
2024-03-13T00:57:18.834Z,4.08
2024-03-13T00:59:46.370Z,4.12
2024-03-13T01:02:13.705Z,4.12
2024-03-13T01:04:40.608Z,4.04
2024-03-13T01:07:10.315Z,4.09
2024-03-13T01:09:39.881Z,4.09
2024-03-13T01:12:07.629Z,4.14
2024-03-13T01:14:34.953Z,4.17
2024-03-13T01:17:04.124Z,4.17
2024-03-13T01:19:36.268Z,4.18
2024-03-13T01:22:14.767Z,4.12
2024-03-13T01:24:44.295Z,4.17
2024-03-13T01:27:11.908Z,4.14
2024-03-13T01:29:43.063Z,4.17
2024-03-13T01:32:10.828Z,4.11
2024-03-13T01:34:37.765Z,3.97
2024-03-13T01:37:23.251Z,3.93
2024-03-13T01:39:53.256Z,3.88
2024-03-13T01:42:38.606Z,3.88
2024-03-13T01:45:27.994Z,3.87
2024-03-13T01:48:17.002Z,3.93
2024-03-13T01:51:03.109Z,3.95
2024-03-13T01:53:48.552Z,3.97
2024-03-13T01:56:26.444Z,3.97
2024-03-13T01:59:04.622Z,3.87
2024-03-13T02:01:50.548Z,3.84
2024-03-13T02:04:18.170Z,3.73
2024-03-13T02:06:46.854Z,3.64
2024-03-13T02:09:13.735Z,3.69
2024-03-13T02:11:40.737Z,3.74
2024-03-13T02:14:08.454Z,3.71
2024-03-13T02:16:35.935Z,3.74
2024-03-13T02:19:04.124Z,3.81
2024-03-13T02:21:34.438Z,3.86
2024-03-13T02:24:01.557Z,3.91
2024-03-13T02:26:28.505Z,3.94
2024-03-13T02:28:55.398Z,3.94
2024-03-13T02:31:22.451Z,3.91
2024-03-13T02:33:49.544Z,3.95
2024-03-13T02:36:16.920Z,3.93
2024-03-13T02:38:46.364Z,3.95
2024-03-13T02:41:13.357Z,3.97
2024-03-13T02:43:42.404Z,3.90
2024-03-13T02:46:09.969Z,3.87
2024-03-13T02:48:38.128Z,3.90
2024-03-13T02:51:05.551Z,3.94
2024-03-13T02:53:33.005Z,3.99
2024-03-13T02:55:59.962Z,4.01
2024-03-13T02:58:27.236Z,4.02
2024-03-13T03:00:56.486Z,4.08
2024-03-13T03:03:23.794Z,4.11
2024-03-13T03:05:50.592Z,4.17
2024-03-13T03:08:18.229Z,4.17
2024-03-13T03:10:45.044Z,4.22
2024-03-13T03:13:12.225Z,4.19
2024-03-13T03:15:40.640Z,4.21
2024-03-13T03:18:10.816Z,4.22
2024-03-13T03:20:37.640Z,4.18
2024-03-13T03:23:05.102Z,4.24
2024-03-13T03:25:31.942Z,4.31
2024-03-13T03:27:58.830Z,4.35
2024-03-13T03:30:31.788Z,4.41
2024-03-13T03:33:02.628Z,4.42
2024-03-13T03:35:30.472Z,4.42
2024-03-13T03:37:58.027Z,4.38
2024-03-13T03:40:25.440Z,4.31
2024-03-13T03:42:52.707Z,4.35
2024-03-13T03:45:19.599Z,4.39
2024-03-13T03:47:51.699Z,4.45
2024-03-13T03:50:24.493Z,4.46
2024-03-13T03:52:51.344Z,4.32
2024-03-13T03:55:19.324Z,4.31
2024-03-13T03:57:46.843Z,4.35
2024-03-13T04:00:14.113Z,4.29
2024-03-13T04:02:43.922Z,4.35
2024-03-13T04:05:10.658Z,4.41
2024-03-13T04:07:40.128Z,4.46
2024-03-13T04:10:07.309Z,4.49
2024-03-13T04:12:35.309Z,4.53
2024-03-13T04:15:03.774Z,4.56
2024-03-13T04:17:30.729Z,4.62
2024-03-13T04:19:58.396Z,4.50
2024-03-13T04:22:27.869Z,4.45
2024-03-13T04:24:54.753Z,4.49
2024-03-13T04:27:21.474Z,4.52
2024-03-13T04:29:48.811Z,4.57
2024-03-13T04:32:15.794Z,4.62
2024-03-13T04:34:42.824Z,4.56
2024-03-13T04:37:09.745Z,4.59
2024-03-13T04:39:36.755Z,4.66
2024-03-13T04:42:06.071Z,4.69
2024-03-13T04:44:33.016Z,4.74
2024-03-13T04:46:59.869Z,4.81
2024-03-13T04:49:26.777Z,4.84
2024-03-13T04:51:53.628Z,4.79
2024-03-13T04:54:20.394Z,4.84
2024-03-13T04:56:47.382Z,4.87
2024-03-13T04:59:14.205Z,4.93
2024-03-13T05:01:41.114Z,4.97
2024-03-13T05:04:07.987Z,5.00
2024-03-13T05:06:34.863Z,5.00
2024-03-13T05:09:01.698Z,5.05
2024-03-13T05:11:28.749Z,5.11
2024-03-13T05:13:55.993Z,5.10
2024-03-13T05:16:23.081Z,5.17
2024-03-13T05:18:50.171Z,5.22
2024-03-13T05:21:17.601Z,5.11
2024-03-13T05:23:45.230Z,5.15
2024-03-13T05:26:12.882Z,5.27
2024-03-13T05:28:39.782Z,5.20
2024-03-13T05:31:11.121Z,5.24
2024-03-13T05:33:41.880Z,5.25
2024-03-13T05:36:12.844Z,5.25
2024-03-13T05:38:40.425Z,5.22
2024-03-13T05:41:07.550Z,5.32
2024-03-13T05:43:34.633Z,5.42
2024-03-13T05:46:01.537Z,5.55
2024-03-13T05:48:28.491Z,5.63
2024-03-13T05:50:57.807Z,5.80
2024-03-13T05:53:24.685Z,5.91
2024-03-13T05:55:51.690Z,5.89
2024-03-13T05:58:21.980Z,5.91
2024-03-13T06:00:49.032Z,6.00
2024-03-13T06:03:16.012Z,6.09
2024-03-13T06:05:42.821Z,6.22
2024-03-13T06:08:09.651Z,6.39
2024-03-13T06:10:36.710Z,6.61
2024-03-13T06:13:03.853Z,6.73
2024-03-13T06:15:30.954Z,6.85
2024-03-13T06:17:58.535Z,6.99
2024-03-13T06:20:25.454Z,6.97
2024-03-13T06:22:53.385Z,6.99
2024-03-13T06:25:20.399Z,6.82
2024-03-13T06:27:47.673Z,6.65
2024-03-13T06:30:14.666Z,6.53
2024-03-13T06:32:41.691Z,6.53
2024-03-13T06:35:08.705Z,6.50
2024-03-13T06:37:36.978Z,6.48
2024-03-13T06:40:05.567Z,6.53
2024-03-13T06:42:32.869Z,6.59
2024-03-13T06:44:59.811Z,6.55
2024-03-13T06:47:27.012Z,6.56
2024-03-13T06:49:53.868Z,6.61
2024-03-13T06:52:20.805Z,6.65
2024-03-13T06:54:47.802Z,6.71
2024-03-13T06:57:14.933Z,6.71
2024-03-13T06:59:46.334Z,6.66
2024-03-13T07:02:16.500Z,6.61
2024-03-13T07:04:43.832Z,6.65
2024-03-13T07:07:12.099Z,6.58
2024-03-13T07:09:39.106Z,6.66
2024-03-13T07:12:06.354Z,6.71
2024-03-13T07:14:33.303Z,6.77
2024-03-13T07:17:00.277Z,6.85
2024-03-13T07:19:27.395Z,6.92
2024-03-13T07:21:54.414Z,7.03
2024-03-13T07:24:21.751Z,7.10
2024-03-13T07:26:48.637Z,7.20
2024-03-13T07:29:15.511Z,7.23
2024-03-13T07:31:43.080Z,7.28
2024-03-13T07:34:11.708Z,7.30
2024-03-13T07:36:39.646Z,7.38
2024-03-13T07:39:12.764Z,7.50
2024-03-13T07:41:41.406Z,7.61
2024-03-13T07:44:09.207Z,7.68
2024-03-13T07:46:36.363Z,7.79
2024-03-13T07:49:04.263Z,7.99
2024-03-13T07:51:31.412Z,8.10
2024-03-13T07:53:58.443Z,8.26
2024-03-13T07:56:25.456Z,8.45
2024-03-13T07:58:52.769Z,8.65
2024-03-13T08:01:20.303Z,8.81
2024-03-13T08:03:48.346Z,8.98
2024-03-13T09:06:44.041Z,14.48
2024-03-13T09:09:10.939Z,14.91
2024-03-13T09:11:39.122Z,15.00
2024-03-13T09:14:08.968Z,15.34
2024-03-13T09:16:37.381Z,14.89
2024-03-13T09:19:05.508Z,14.00
2024-03-13T09:24:00.004Z,13.01
2024-03-13T09:26:27.125Z,12.67
2024-03-13T09:28:56.687Z,12.45
2024-03-13T09:31:25.686Z,12.17
2024-03-13T09:33:52.988Z,11.95
2024-03-13T09:36:20.516Z,11.62
2024-03-13T09:38:47.428Z,11.77
2024-03-13T09:41:17.862Z,11.87
2024-03-13T09:43:46.250Z,12.04
2024-03-13T09:46:15.199Z,11.95
2024-03-13T09:48:44.061Z,12.26
2024-03-13T09:51:11.838Z,12.14
2024-03-13T09:53:41.890Z,12.36
2024-03-13T09:56:15.886Z,12.56
2024-03-13T09:58:46.928Z,12.25
2024-03-13T10:01:37.165Z,11.74
2024-03-13T10:04:12.086Z,11.62
2024-03-13T10:06:40.428Z,11.55
2024-03-13T10:09:25.330Z,11.35
2024-03-13T10:11:53.361Z,11.01
2024-03-13T10:14:21.476Z,10.50
2024-03-13T10:16:52.936Z,10.34
2024-03-13T10:19:22.804Z,10.54
2024-03-13T10:21:51.232Z,11.02
2024-03-13T10:24:20.177Z,11.30
2024-03-13T10:26:47.794Z,11.63
2024-03-13T10:29:14.673Z,12.22
2024-03-13T10:31:41.696Z,12.63
2024-03-13T10:34:09.794Z,12.73
2024-03-13T10:36:38.568Z,12.87
2024-03-13T10:39:06.923Z,12.62
2024-03-13T10:41:33.989Z,12.48
2024-03-13T10:44:01.470Z,12.52
2024-03-13T10:46:28.266Z,12.29
2024-03-13T10:48:55.598Z,11.99
2024-03-13T10:51:24.724Z,11.81
2024-03-13T10:53:51.754Z,11.76
2024-03-13T10:56:20.109Z,11.86
2024-03-13T10:58:50.888Z,12.34
2024-03-13T11:01:19.187Z,12.48
2024-03-13T11:03:47.480Z,12.25
2024-03-13T11:06:16.621Z,12.01
2024-03-13T11:08:43.991Z,12.01
2024-03-13T11:11:20.855Z,12.25
2024-03-13T11:13:55.605Z,12.45
2024-03-13T11:16:24.623Z,12.94
2024-03-13T11:18:52.078Z,13.22
2024-03-13T11:21:48.225Z,13.11
2024-03-13T11:24:16.867Z,12.97
2024-03-13T11:26:43.782Z,12.66
2024-03-13T11:29:13.269Z,12.44
2024-03-13T11:31:41.760Z,12.07
2024-03-13T11:34:09.239Z,11.80
2024-03-13T11:36:36.337Z,11.62
2024-03-13T11:39:05.178Z,11.29
2024-03-13T11:41:32.858Z,11.23
2024-03-13T11:43:59.942Z,11.18
2024-03-13T11:46:35.105Z,11.04
2024-03-13T11:49:07.617Z,10.84
2024-03-13T11:51:37.640Z,10.68
2024-03-13T11:54:14.210Z,10.44
2024-03-13T11:56:44.012Z,10.33
2024-03-13T11:59:17.989Z,10.17
2024-03-13T12:01:46.181Z,10.05
2024-03-13T12:04:13.104Z,9.79
2024-03-13T12:06:43.221Z,9.71
2024-03-13T12:09:12.759Z,9.70
2024-03-13T12:11:39.809Z,9.52
2024-03-13T12:14:06.862Z,9.31
2024-03-13T12:16:33.724Z,9.08
2024-03-13T12:19:00.817Z,8.88
2024-03-13T12:21:27.863Z,8.81
2024-03-13T12:23:55.182Z,8.81
2024-03-13T12:26:22.152Z,8.92
2024-03-13T12:28:51.969Z,9.00
2024-03-13T12:31:19.316Z,9.08
2024-03-13T12:33:49.889Z,9.15
2024-03-13T12:36:19.315Z,9.17
2024-03-13T12:38:46.360Z,9.26
2024-03-13T12:41:13.455Z,9.40
2024-03-13T12:43:44.586Z,9.54
2024-03-13T12:46:15.520Z,9.59
2024-03-13T12:48:42.865Z,9.62
2024-03-13T12:51:09.791Z,9.73
2024-03-13T12:53:38.534Z,9.84
2024-03-13T12:56:09.684Z,9.89
2024-03-13T12:58:37.041Z,9.74
2024-03-13T13:01:06.100Z,9.74
2024-03-13T13:03:33.477Z,9.84
2024-03-13T13:06:01.536Z,9.91
2024-03-13T13:08:29.888Z,9.89
2024-03-13T13:10:58.381Z,9.86
2024-03-13T13:13:27.496Z,9.92
2024-03-13T13:15:54.609Z,9.81
2024-03-13T13:18:21.753Z,9.73
2024-03-13T13:20:48.995Z,9.59
2024-03-13T13:23:15.758Z,9.52
2024-03-13T13:25:42.647Z,9.50
2024-03-13T13:28:13.646Z,9.43
2024-03-13T13:30:45.651Z,9.36
2024-03-13T13:33:12.935Z,9.19
2024-03-13T13:35:44.341Z,9.06
2024-03-13T13:38:13.403Z,8.90
2024-03-13T13:40:40.407Z,8.81
2024-03-13T13:43:10.749Z,8.67
2024-03-13T13:45:37.876Z,8.69
2024-03-13T13:48:08.214Z,8.90
2024-03-13T13:50:35.010Z,9.12
2024-03-13T13:53:01.825Z,9.43
2024-03-13T13:55:28.738Z,9.61
2024-03-13T13:57:55.585Z,9.81
2024-03-13T14:00:24.744Z,9.88
2024-03-13T14:02:54.253Z,9.98
2024-03-13T14:05:22.010Z,10.02
2024-03-13T14:07:50.485Z,10.06
2024-03-13T14:10:17.275Z,9.88
2024-03-13T14:12:44.706Z,9.86
2024-03-13T14:15:13.150Z,9.78
2024-03-13T14:17:40.711Z,9.71
2024-03-13T14:20:13.724Z,9.51
2024-03-13T14:22:42.296Z,9.41
2024-03-13T14:25:09.332Z,9.24
2024-03-13T14:27:36.810Z,9.10
2024-03-13T14:30:04.632Z,9.12
2024-03-13T14:32:32.083Z,8.93
2024-03-13T14:35:07.675Z,8.83
2024-03-13T14:37:36.104Z,8.65
2024-03-13T14:40:07.475Z,8.54
2024-03-13T14:42:36.149Z,8.67
2024-03-13T14:45:03.940Z,8.67
2024-03-13T14:47:31.080Z,8.69
2024-03-13T14:49:57.992Z,8.72
2024-03-13T14:52:25.404Z,8.69
2024-03-13T14:54:55.388Z,8.57
2024-03-13T14:57:23.627Z,8.65
2024-03-13T14:59:51.321Z,8.83
2024-03-13T15:02:19.559Z,9.36
2024-03-13T15:04:47.844Z,9.62
2024-03-13T15:07:15.991Z,9.58
2024-03-13T15:09:43.781Z,9.46
2024-03-13T15:12:15.573Z,9.33
2024-03-13T15:14:44.686Z,9.19
2024-03-13T15:17:12.470Z,9.00
2024-03-13T15:19:40.215Z,8.90
2024-03-13T15:22:07.399Z,8.83
2024-03-13T15:24:34.630Z,8.79
2024-03-13T15:27:03.121Z,8.81
2024-03-13T15:29:30.293Z,8.72
2024-03-13T15:31:57.156Z,8.73
2024-03-13T15:34:23.998Z,8.61
2024-03-13T15:36:50.801Z,8.38
2024-03-13T15:39:18.105Z,8.29
2024-03-13T15:41:45.467Z,8.30
2024-03-13T15:44:13.556Z,8.31
2024-03-13T15:46:42.992Z,8.37
2024-03-13T15:49:12.850Z,8.41
2024-03-13T15:51:40.365Z,8.44
2024-03-13T15:54:07.733Z,8.40
2024-03-13T15:56:35.564Z,8.37
2024-03-13T15:59:02.467Z,8.30
2024-03-13T16:01:29.489Z,8.23
2024-03-13T16:03:56.361Z,8.16
2024-03-13T16:06:23.770Z,8.09
2024-03-13T16:09:02.767Z,8.02
2024-03-13T16:11:31.510Z,7.96
2024-03-13T16:13:58.322Z,7.99
2024-03-13T16:16:31.511Z,7.90
2024-03-13T16:18:58.957Z,7.81
2024-03-13T16:21:29.212Z,7.64
2024-03-13T16:23:56.388Z,7.56
2024-03-13T16:26:24.970Z,7.48
2024-03-13T16:28:55.574Z,7.35
2024-03-13T16:31:25.187Z,7.27
2024-03-13T16:33:53.986Z,7.17
2024-03-13T16:36:21.362Z,7.03
2024-03-13T16:38:48.672Z,6.96
2024-03-13T16:41:15.918Z,6.89
2024-03-13T16:43:43.020Z,6.85
2024-03-13T16:46:10.634Z,6.79
2024-03-13T16:48:38.280Z,6.79
2024-03-13T16:51:08.282Z,6.79
2024-03-13T16:53:35.306Z,6.86
2024-03-13T16:56:02.740Z,6.85
2024-03-13T16:58:30.448Z,6.86
2024-03-13T17:00:57.514Z,6.82
2024-03-13T17:03:24.440Z,6.73
2024-03-13T17:05:52.622Z,6.79
2024-03-13T17:08:19.852Z,6.73
2024-03-13T17:10:49.881Z,6.68
2024-03-13T17:13:17.181Z,6.68
2024-03-13T17:15:44.980Z,6.68
2024-03-13T17:18:12.460Z,6.65
2024-03-13T17:20:39.565Z,6.68
2024-03-13T17:23:06.384Z,6.65
2024-03-13T17:25:33.374Z,6.69
2024-03-13T17:28:00.539Z,6.65
2024-03-13T17:30:27.357Z,6.65
2024-03-13T17:32:55.109Z,6.61
2024-03-13T17:35:22.052Z,6.48
2024-03-13T17:37:52.466Z,6.48
2024-03-13T17:40:21.468Z,6.50
2024-03-13T17:42:48.678Z,6.53
2024-03-13T17:45:18.346Z,6.56
2024-03-13T17:47:46.070Z,6.62
2024-03-13T17:50:15.034Z,6.61
2024-03-13T17:52:42.077Z,6.56
2024-03-13T17:55:09.125Z,6.55
2024-03-13T17:57:39.184Z,6.55
2024-03-13T18:00:08.680Z,6.52
2024-03-13T18:02:36.704Z,6.48
2024-03-13T18:05:04.391Z,6.55
2024-03-13T18:07:31.491Z,6.62
2024-03-13T18:09:58.339Z,6.53
2024-03-13T18:12:26.281Z,6.45
2024-03-13T18:14:54.468Z,6.32
2024-03-13T18:17:23.533Z,6.16
2024-03-13T18:19:50.508Z,6.13
2024-03-13T18:22:23.034Z,6.18
2024-03-13T18:24:50.867Z,6.16
2024-03-13T18:27:17.880Z,6.20
2024-03-13T18:29:44.798Z,6.21
2024-03-13T18:32:11.667Z,6.20
2024-03-13T18:34:40.307Z,6.21
2024-03-13T18:37:08.362Z,6.20
2024-03-13T18:39:35.445Z,6.18
2024-03-13T18:42:02.640Z,6.17
2024-03-13T18:44:29.539Z,6.21
2024-03-13T18:46:56.441Z,6.18
2024-03-13T18:49:23.424Z,6.20
2024-03-13T18:51:52.609Z,6.17
2024-03-13T18:54:22.634Z,6.13
2024-03-13T18:56:50.066Z,6.09
2024-03-13T18:59:16.970Z,6.03
2024-03-13T19:01:43.765Z,5.99
2024-03-13T19:04:12.074Z,5.94
2024-03-13T19:06:42.442Z,5.87
2024-03-13T19:09:10.409Z,5.83
2024-03-13T19:11:37.525Z,5.76
2024-03-13T19:14:05.167Z,5.62
2024-03-13T19:16:32.434Z,5.59
2024-03-13T19:19:00.084Z,5.53
2024-03-13T19:21:27.106Z,5.55
2024-03-13T19:23:54.075Z,5.52
2024-03-13T19:26:23.390Z,5.52
2024-03-13T19:28:52.379Z,5.49
2024-03-13T19:31:26.892Z,5.45
2024-03-13T19:33:58.052Z,5.43
2024-03-13T19:36:27.722Z,5.42
2024-03-13T19:38:54.643Z,5.46
2024-03-13T19:41:21.958Z,5.39
2024-03-13T19:43:49.183Z,5.35
2024-03-13T19:46:16.164Z,5.34
2024-03-13T19:48:43.105Z,5.30
2024-03-13T19:51:10.920Z,5.28
2024-03-13T19:53:39.190Z,5.27
2024-03-13T19:56:08.098Z,5.27
2024-03-13T19:58:36.006Z,5.24
2024-03-13T20:01:02.799Z,5.18
2024-03-13T20:03:29.784Z,5.13
2024-03-13T20:05:57.173Z,5.05
2024-03-13T20:08:24.616Z,4.97
2024-03-13T20:13:18.815Z,4.87
2024-03-13T20:15:46.334Z,4.84
2024-03-13T20:18:13.586Z,4.79
2024-03-13T20:20:41.570Z,4.74
2024-03-13T20:23:09.320Z,4.72
2024-03-13T20:25:37.650Z,4.67
2024-03-13T20:28:14.004Z,4.67
2024-03-13T20:30:41.328Z,4.66
2024-03-13T20:33:14.249Z,4.60
2024-03-13T20:35:41.336Z,4.55
2024-03-13T20:38:08.309Z,4.50
2024-03-13T20:40:35.963Z,4.36
2024-03-13T20:43:04.007Z,4.36
2024-03-13T20:45:31.087Z,4.32
2024-03-13T20:47:59.055Z,4.32
2024-03-13T20:50:26.033Z,4.31
2024-03-13T20:52:52.815Z,4.34
2024-03-13T20:55:19.826Z,4.31
2024-03-13T20:57:46.969Z,4.28
2024-03-13T21:00:18.933Z,4.26
2024-03-13T21:02:46.103Z,4.22
2024-03-13T21:05:12.974Z,4.21
2024-03-13T21:07:40.399Z,4.18
2024-03-13T21:10:10.243Z,4.15
2024-03-13T21:12:38.309Z,4.15
2024-03-13T21:15:06.813Z,4.15
2024-03-13T21:17:36.431Z,4.18
2024-03-13T21:20:11.092Z,4.12
2024-03-13T21:22:39.331Z,4.09
2024-03-13T21:25:07.095Z,4.11
2024-03-13T21:27:34.022Z,4.09
2024-03-13T21:30:01.028Z,4.05
2024-03-13T21:32:29.208Z,4.05
2024-03-13T21:34:56.112Z,4.04
2024-03-13T21:37:24.894Z,4.01
2024-03-13T21:39:52.601Z,4.01
2024-03-13T21:42:19.442Z,3.95
2024-03-13T21:44:46.491Z,3.95
2024-03-13T21:47:13.795Z,3.91
2024-03-13T21:49:40.647Z,3.91
2024-03-13T21:52:07.509Z,3.86
2024-03-13T21:54:34.464Z,3.84
2024-03-13T21:57:04.094Z,3.81
2024-03-13T21:59:31.224Z,3.81
2024-03-13T22:01:58.481Z,3.78
2024-03-13T22:04:26.889Z,3.81
2024-03-13T22:06:53.870Z,3.83
2024-03-13T22:09:20.602Z,3.81
2024-03-13T22:11:47.494Z,3.84
2024-03-13T22:14:14.393Z,3.86
2024-03-13T22:16:41.260Z,3.87
2024-03-13T22:19:08.278Z,3.86
2024-03-13T22:21:35.385Z,3.84
2024-03-13T22:24:02.380Z,3.83
2024-03-13T22:26:29.226Z,3.81
2024-03-13T22:28:56.070Z,3.84
2024-03-13T22:31:22.962Z,3.81
2024-03-13T22:33:49.960Z,3.78
2024-03-13T22:36:16.937Z,3.78
2024-03-13T22:38:44.021Z,3.78
2024-03-13T22:41:11.069Z,3.78
2024-03-13T22:43:37.897Z,3.77
2024-03-13T22:46:05.753Z,3.74
2024-03-13T22:48:33.278Z,3.73
2024-03-13T22:51:00.432Z,3.76
2024-03-13T22:53:27.863Z,3.74
2024-03-13T22:55:54.713Z,3.73
2024-03-13T22:58:22.326Z,3.70
2024-03-13T23:00:59.069Z,3.69
2024-03-13T23:03:27.854Z,3.66
2024-03-13T23:05:54.932Z,3.66
2024-03-13T23:08:21.749Z,3.67
2024-03-13T23:10:48.646Z,3.69
2024-03-13T23:13:16.631Z,3.63
2024-03-13T23:15:44.358Z,3.64
2024-03-13T23:18:11.337Z,3.62
2024-03-13T23:20:38.485Z,3.60
2024-03-13T23:23:09.295Z,3.56
2024-03-13T23:25:36.716Z,3.60
2024-03-13T23:28:07.566Z,3.56
2024-03-13T23:30:34.700Z,3.57
2024-03-13T23:33:02.206Z,3.56
2024-03-13T23:35:29.603Z,3.59
2024-03-13T23:37:56.659Z,3.64
2024-03-13T23:40:23.519Z,3.64
2024-03-13T23:42:52.442Z,3.56
2024-03-13T23:45:19.443Z,3.57
2024-03-13T23:47:46.544Z,3.52
2024-03-13T23:50:14.162Z,3.52
2024-03-13T23:52:41.244Z,3.56
2024-03-13T23:55:08.365Z,3.59
2024-03-13T23:57:35.625Z,3.60
